Time;durP1;ratioP1;P1;durP2;ratioP2;P2;SDS_P1;SDS_P2;PMS_P1;PMS_P2;Temp;Humidity;BMP_temperature;BMP_pressure;BME280_temperature;BME280_humidity;BME280_pressure;Samples;Min_cycle;Max_cycle;Signal;HPM_P1;HPM_P2
2021/05/01 00:00:43;;;;;;;;;;;;;;;21.74;31.03;97684.88;4930084;29;851;-79
2021/05/01 00:03:09;;;;;;;;;;;;;;;21.72;31.43;97681.72;4928540;29;999;-78
2021/05/01 00:05:48;;;;;;;;;;;;;;;21.72;31.43;97689.44;4926219;29;734;-79
2021/05/01 00:08:22;;;;;;;;;;;;;;;21.85;31.19;97690.19;4926788;29;742;-79
2021/05/01 00:10:47;;;;;;;;;;;;;;;21.76;30.97;97699.41;4926079;29;711;-79
2021/05/01 00:13:19;;;;;;;;;;;;;;;21.72;31.16;97698.72;4926310;29;1923;-79
2021/05/01 00:15:45;;;;;;;;;;;;;;;21.75;30.85;97709.13;4925609;29;900;-79
2021/05/01 00:18:17;;;;;;;;;;;;;;;21.61;31.13;97720.91;4925841;29;734;-79
2021/05/01 00:20:42;;;;;;;;;;;;;;;21.66;31.11;97713.88;4925386;29;852;-78
2021/05/01 00:23:14;;;;;;;;;;;;;;;21.66;31.09;97700.53;4925764;29;619;-79
2021/05/01 00:25:39;;;;;;;;;;;;;;;21.63;31.03;97718.41;4926509;29;695;-79
2021/05/01 00:28:11;;;;;;;;;;;;;;;21.67;31.00;97709.81;4926109;29;1047;-79
2021/05/01 00:30:40;;;;;;;;;;;;;;;21.72;30.84;97715.69;4925978;29;909;-79
2021/05/01 00:33:12;;;;;;;;;;;;;;;21.62;31.07;97716.03;4926301;29;1915;-79
2021/05/01 00:35:37;;;;;;;;;;;;;;;21.59;31.10;97712.06;4926233;29;643;-79
2021/05/01 00:38:09;;;;;;;;;;;;;;;21.77;30.75;97723.63;4926442;29;817;-79
2021/05/01 00:40:34;;;;;;;;;;;;;;;21.73;30.65;97717.28;4925585;29;1095;-79
2021/05/01 00:43:06;;;;;;;;;;;;;;;21.71;30.73;97725.44;4925844;29;971;-79
2021/05/01 00:45:31;;;;;;;;;;;;;;;21.70;30.67;97735.16;4925824;29;915;-79
2021/05/01 00:48:03;;;;;;;;;;;;;;;21.76;30.85;97739.03;4926096;29;651;-79
2021/05/01 00:50:29;;;;;;;;;;;;;;;21.78;30.80;97742.22;4925847;29;1330;-79
2021/05/01 00:53:01;;;;;;;;;;;;;;;21.67;31.07;97736.09;4925182;29;1906;-79
2021/05/01 00:55:26;;;;;;;;;;;;;;;21.66;31.01;97740.16;4925200;29;663;-79
2021/05/01 00:57:58;;;;;;;;;;;;;;;21.67;31.08;97741.75;4925490;29;882;-79
2021/05/01 01:03:01;;;;;;;;;;;;;;;21.84;30.77;97729.06;4925706;29;647;-79
2021/05/01 01:05:27;;;;;;;;;;;;;;;21.76;31.10;97722.06;4942081;29;1061;-79
2021/05/01 01:07:59;;;;;;;;;;;;;;;21.67;31.01;97730.44;4944596;29;687;-79
2021/05/01 01:10:24;;;;;;;;;;;;;;;21.84;30.82;97716.94;4928248;29;683;-79
2021/05/01 01:12:56;;;;;;;;;;;;;;;21.81;30.61;97718.66;4944279;29;2280;-79
2021/05/01 01:15:22;;;;;;;;;;;;;;;21.73;30.96;97708.00;4927376;29;1028;-79
2021/05/01 01:17:55;;;;;;;;;;;;;;;21.69;30.80;97696.78;4929039;29;1014;-79
2021/05/01 01:20:20;;;;;;;;;;;;;;;21.73;31.02;97700.28;4944399;29;652;-79
2021/05/01 01:22:52;;;;;;;;;;;;;;;21.74;31.03;97696.22;4928642;29;659;-79
2021/05/01 01:25:18;;;;;;;;;;;;;;;21.76;31.02;97687.25;4927529;29;780;-79
2021/05/01 01:27:50;;;;;;;;;;;;;;;21.78;30.93;97690.44;4928477;29;826;-79
2021/05/01 01:30:17;;;;;;;;;;;;;;;21.70;30.63;97684.19;4927220;29;935;-79
2021/05/01 01:32:49;;;;;;;;;;;;;;;21.75;30.92;97686.47;4928643;29;1906;-79
2021/05/01 01:35:14;;;;;;;;;;;;;;;21.69;30.85;97688.28;4944161;29;628;-79
2021/05/01 01:37:46;;;;;;;;;;;;;;;21.74;30.88;97684.88;4944036;29;591;-79
2021/05/01 01:40:12;;;;;;;;;;;;;;;21.79;30.86;97681.47;4927590;29;640;-79
2021/05/01 01:42:44;;;;;;;;;;;;;;;21.79;30.65;97678.66;4943775;29;861;-78
2021/05/01 01:45:10;;;;;;;;;;;;;;;21.85;30.53;97676.81;4943611;29;943;-79
2021/05/01 01:47:42;;;;;;;;;;;;;;;21.73;31.09;97671.97;4928364;29;604;-78
2021/05/01 01:50:09;;;;;;;;;;;;;;;21.72;30.62;97673.22;4927531;29;660;-78
2021/05/01 01:52:41;;;;;;;;;;;;;;;21.68;30.94;97669.72;4943865;29;1931;-79
2021/05/01 01:55:14;;;;;;;;;;;;;;;21.67;30.89;97668.13;4943909;29;623;-78
2021/05/01 01:57:40;;;;;;;;;;;;;;;21.65;30.89;97664.94;4926929;29;957;-79
2021/05/01 02:00:16;;;;;;;;;;;;;;;21.85;30.54;97668.31;4927825;29;920;-78
2021/05/01 02:02:42;;;;;;;;;;;;;;;21.85;30.71;97671.16;4943553;29;663;-78
2021/05/01 02:05:21;;;;;;;;;;;;;;;21.77;30.64;97660.53;4942445;29;1088;-77
2021/05/01 02:07:53;;;;;;;;;;;;;;;21.73;30.90;97666.31;4929061;29;668;-79
2021/05/01 02:10:25;;;;;;;;;;;;;;;21.70;30.83;97657.91;4928074;29;739;-79
2021/05/01 02:12:50;;;;;;;;;;;;;;;21.65;30.72;97662.13;4943022;29;1927;-79
2021/05/01 02:15:22;;;;;;;;;;;;;;;21.62;30.97;97663.03;4943092;29;854;-79
2021/05/01 02:17:49;;;;;;;;;;;;;;;21.71;30.86;97657.50;4926205;29;1217;-79
2021/05/01 02:20:22;;;;;;;;;;;;;;;21.81;30.58;97664.84;4943623;29;796;-79
2021/05/01 02:22:48;;;;;;;;;;;;;;;21.77;30.75;97654.88;4926854;29;629;-79
2021/05/01 02:25:21;;;;;;;;;;;;;;;21.84;30.77;97661.09;4943484;29;675;-79
2021/05/01 02:27:47;;;;;;;;;;;;;;;21.90;30.48;97658.47;4943096;29;1055;-79
2021/05/01 02:30:20;;;;;;;;;;;;;;;21.89;30.37;97667.44;4942972;29;980;-79
2021/05/01 02:32:45;;;;;;;;;;;;;;;21.97;30.43;97657.47;4926706;29;1988;-79
2021/05/01 02:35:18;;;;;;;;;;;;;;;21.87;30.44;97658.59;4943172;29;624;-79
2021/05/01 02:37:44;;;;;;;;;;;;;;;21.79;30.75;97672.19;4925922;29;793;-79
2021/05/01 02:40:17;;;;;;;;;;;;;;;21.73;30.92;97666.31;4943059;29;679;-79
2021/05/01 02:42:42;;;;;;;;;;;;;;;21.81;30.59;97666.84;4942705;29;854;-79
2021/05/01 02:45:15;;;;;;;;;;;;;;;21.83;30.76;97664.38;4942628;29;913;-79
2021/05/01 02:47:40;;;;;;;;;;;;;;;21.82;30.49;97652.25;4926601;29;1040;-79
2021/05/01 02:50:12;;;;;;;;;;;;;;;21.78;30.54;97660.06;4927421;29;663;-79
2021/05/01 02:52:44;;;;;;;;;;;;;;;21.82;30.71;97659.97;4942965;29;1979;-79
2021/05/01 02:55:10;;;;;;;;;;;;;;;21.84;30.74;97660.28;4926393;29;802;-79
2021/05/01 02:57:42;;;;;;;;;;;;;;;21.74;30.75;97673.56;4942635;29;892;-79
2021/05/01 03:00:09;;;;;;;;;;;;;;;21.66;30.85;97672.22;4926146;29;1196;-79
2021/05/01 03:02:40;;;;;;;;;;;;;;;21.84;30.57;97678.06;4927242;29;895;-78
2021/05/01 03:05:07;;;;;;;;;;;;;;;21.74;30.84;97673.56;4925795;29;998;-79
2021/05/01 03:07:32;;;;;;;;;;;;;;;21.87;30.53;97667.91;4942928;29;651;-79
2021/05/01 03:09:58;;;;;;;;;;;;;;;21.85;30.46;97668.31;4943476;29;573;-78
2021/05/01 03:12:23;;;;;;;;;;;;;;;21.84;30.80;97674.47;4942330;29;1914;-79
2021/05/01 03:14:48;;;;;;;;;;;;;;;21.70;30.84;97667.22;4942541;29;898;-79
2021/05/01 03:17:14;;;;;;;;;;;;;;;21.74;30.76;97679.22;4942651;29;962;-79
2021/05/01 03:19:40;;;;;;;;;;;;;;;21.79;30.80;97684.31;4926215;29;663;-79
2021/05/01 03:22:05;;;;;;;;;;;;;;;21.75;30.74;97683.63;4942662;29;600;-79
2021/05/01 03:24:31;;;;;;;;;;;;;;;21.76;30.76;97692.91;4926136;29;695;-79
2021/05/01 03:26:56;;;;;;;;;;;;;;;21.75;30.74;97688.50;4942295;29;920;-79
2021/05/01 03:29:22;;;;;;;;;;;;;;;21.82;30.68;97691.91;4944479;29;857;-79
2021/05/01 03:31:47;;;;;;;;;;;;;;;21.82;30.71;97699.63;4929792;29;1907;-79
2021/05/01 03:34:13;;;;;;;;;;;;;;;21.81;30.45;97700.84;4946331;29;683;-79
2021/05/01 03:36:38;;;;;;;;;;;;;;;21.78;30.76;97701.78;4929773;29;612;-79
2021/05/01 03:39:04;;;;;;;;;;;;;;;21.69;31.00;97712.97;4946325;29;756;-80
2021/05/01 03:41:29;;;;;;;;;;;;;;;21.79;30.53;97715.47;4929379;29;1068;-79
2021/05/01 03:43:55;;;;;;;;;;;;;;;21.81;30.76;97701.66;4945825;29;894;-80
2021/05/01 03:46:21;;;;;;;;;;;;;;;21.88;30.58;97711.16;4946497;29;886;-79
2021/05/01 03:48:46;;;;;;;;;;;;;;;21.83;30.50;97709.69;4929731;29;617;-79
2021/05/01 03:51:12;;;;;;;;;;;;;;;21.78;30.76;97701.78;4946181;29;675;-79
2021/05/01 03:53:37;;;;;;;;;;;;;;;21.79;30.77;97695.63;4929396;29;1906;-79
2021/05/01 03:56:03;;;;;;;;;;;;;;;21.73;30.79;97694.63;4945783;29;927;-80
2021/05/01 03:58:28;;;;;;;;;;;;;;;21.75;30.85;97694.97;4929287;29;872;-79
2021/05/01 04:00:54;;;;;;;;;;;;;;;21.70;30.93;97697.56;4945782;29;940;-80
2021/05/01 04:03:19;;;;;;;;;;;;;;;21.68;30.86;97686.69;4945733;29;644;-79
2021/05/01 04:05:45;;;;;;;;;;;;;;;21.79;30.38;97681.47;4945836;29;1064;-79
2021/05/01 04:08:10;;;;;;;;;;;;;;;21.77;30.41;97686.81;4945993;29;674;-79
2021/05/01 04:10:36;;;;;;;;;;;;;;;21.75;30.81;97686.47;4945524;29;990;-79
2021/05/01 04:13:01;;;;;;;;;;;;;;;21.88;30.37;97680.00;4945339;29;1926;-79
2021/05/01 04:15:27;;;;;;;;;;;;;;;21.78;30.67;97679.91;4945903;29;969;-78
2021/05/01 04:17:53;;;;;;;;;;;;;;;21.88;30.65;97688.50;4928647;29;762;-79
2021/05/01 04:20:19;;;;;;;;;;;;;;;21.80;30.52;97694.38;4913040;29;824;-79
2021/05/01 04:22:44;;;;;;;;;;;;;;;21.82;30.64;97702.44;4929035;29;652;-79
2021/05/01 04:25:11;;;;;;;;;;;;;;;21.89;30.56;97704.25;4945201;29;944;-79
2021/05/01 04:27:37;;;;;;;;;;;;;;;21.89;30.43;97702.22;4928726;29;840;-79
2021/05/01 04:30:03;;;;;;;;;;;;;;;21.93;30.53;97711.38;4945595;29;981;-79
2021/05/01 04:32:28;;;;;;;;;;;;;;;22.03;30.34;97700.97;4928259;29;1895;-79
2021/05/01 04:34:54;;;;;;;;;;;;;;;22.01;30.38;97709.09;4945356;29;648;-79
2021/05/01 04:37:19;;;;;;;;;;;;;;;21.83;30.96;97716.16;4945344;29;696;-79
2021/05/01 04:39:45;;;;;;;;;;;;;;;21.82;30.79;97720.25;4944653;29;1044;-79
2021/05/01 04:42:11;;;;;;;;;;;;;;;21.79;30.81;97718.28;4944651;29;913;-79
2021/05/01 04:44:36;;;;;;;;;;;;;;;21.89;30.77;97718.41;4945074;29;963;-79
2021/05/01 04:47:02;;;;;;;;;;;;;;;21.68;31.24;97719.88;4945092;29;719;-79
2021/05/01 04:49:27;;;;;;;;;;;;;;;21.77;30.90;97726.47;4928796;29;606;-79
2021/05/01 04:51:53;;;;;;;;;;;;;;;21.83;30.89;97721.81;4928333;29;1970;-79
2021/05/01 04:54:18;;;;;;;;;;;;;;;21.76;31.01;97722.06;4944705;29;914;-79
2021/05/01 04:56:44;;;;;;;;;;;;;;;21.82;30.99;97725.09;4944960;29;872;-80
2021/05/01 04:59:09;;;;;;;;;;;;;;;21.85;30.68;97722.16;4944857;29;645;-79
2021/05/01 05:01:35;;;;;;;;;;;;;;;21.99;30.61;97726.56;4945033;29;667;-80
2021/05/01 05:04:01;;;;;;;;;;;;;;;22.01;30.46;97731.78;4945007;29;1005;-79
2021/05/01 05:06:26;;;;;;;;;;;;;;;21.94;30.89;97723.50;4928401;29;624;-77
2021/05/01 05:08:52;;;;;;;;;;;;;;;22.00;30.58;97730.19;4944453;29;1026;-79
2021/05/01 05:11:17;;;;;;;;;;;;;;;22.02;30.68;97722.00;4944597;29;890;-78
2021/05/01 05:13:43;;;;;;;;;;;;;;;21.88;30.97;97728.16;4944439;29;1902;-79
2021/05/01 05:16:08;;;;;;;;;;;;;;;21.90;31.06;97731.31;4944603;29;639;-78
2021/05/01 05:18:34;;;;;;;;;;;;;;;21.90;30.89;97731.31;4928126;29;643;-79
2021/05/01 05:20:59;;;;;;;;;;;;;;;21.88;30.66;97739.50;4944621;29;647;-78
2021/05/01 05:23:25;;;;;;;;;;;;;;;21.81;30.80;97729.97;4944360;29;872;-79
2021/05/01 05:25:51;;;;;;;;;;;;;;;21.83;31.00;97733.16;4944206;29;901;-79
2021/05/01 05:28:16;;;;;;;;;;;;;;;21.90;30.95;97732.13;4944301;29;1020;-81
2021/05/01 05:30:41;;;;;;;;;;;;;;;21.92;31.15;97743.00;4927816;29;779;-80
2021/05/01 05:33:07;;;;;;;;;;;;;;;22.00;30.87;97747.19;4927859;29;1966;-82
2021/05/01 05:35:32;;;;;;;;;;;;;;;21.96;31.01;97752.16;4928170;29;672;-79
2021/05/01 05:37:58;;;;;;;;;;;;;;;21.90;31.06;97743.44;4944101;29;1066;-79
2021/05/01 05:40:23;;;;;;;;;;;;;;;21.93;30.95;97736.09;4944168;29;968;-79
2021/05/01 05:42:50;;;;;;;;;;;;;;;22.05;30.71;97738.13;4927696;29;894;-79
2021/05/01 05:45:22;;;;;;;;;;;;;;;21.97;31.09;97734.75;4944166;29;723;-80
2021/05/01 05:47:48;;;;;;;;;;;;;;;22.02;30.88;97741.84;4928581;29;695;-79
2021/05/01 05:50:13;;;;;;;;;;;;;;;21.85;30.99;97736.31;4927571;29;654;-79
2021/05/01 05:52:39;;;;;;;;;;;;;;;21.85;31.21;97741.97;4926417;29;1903;-79
2021/05/01 05:55:04;;;;;;;;;;;;;;;21.99;30.83;97739.94;4944007;29;651;-79
2021/05/01 05:57:30;;;;;;;;;;;;;;;21.93;31.09;97736.09;4927135;29;1059;-79
2021/05/01 05:59:55;;;;;;;;;;;;;;;21.88;31.20;97740.28;4943506;29;805;-80
2021/05/01 06:02:21;;;;;;;;;;;;;;;21.80;31.40;97738.91;4927358;29;1104;-80
2021/05/01 06:04:49;;;;;;;;;;;;;;;21.90;31.14;97742.66;4943717;29;1005;-78
2021/05/01 06:07:26;;;;;;;;;;;;;;;21.79;31.27;97743.78;4927060;29;631;-80
2021/05/01 06:09:51;;;;;;;;;;;;;;;21.89;31.03;97741.88;4927461;29;659;-81
2021/05/01 06:12:18;;;;;;;;;;;;;;;21.82;31.14;97742.91;4927297;29;1907;-82
2021/05/01 06:14:43;;;;;;;;;;;;;;;21.87;31.30;97744.38;4910266;29;868;-80
2021/05/01 06:17:10;;;;;;;;;;;;;;;21.83;31.34;97747.31;4927259;29;919;-82
2021/05/01 06:19:36;;;;;;;;;;;;;;;21.93;30.76;97736.09;4944298;29;631;-81
2021/05/01 06:22:02;;;;;;;;;;;;;;;21.95;30.84;97744.91;4927637;29;633;-80
2021/05/01 06:24:42;;;;;;;;;;;;;;;21.93;30.99;97747.44;4926686;29;866;-82
2021/05/01 06:27:07;;;;;;;;;;;;;;;21.91;30.89;97749.91;4943177;29;914;-80
2021/05/01 06:29:33;;;;;;;;;;;;;;;21.98;30.90;97749.69;4943154;29;1083;-80
2021/05/01 06:31:59;;;;;;;;;;;;;;;21.89;31.00;97743.91;4926711;29;1919;-79
2021/05/01 06:34:25;;;;;;;;;;;;;;;21.89;31.16;97752.41;4926643;29;612;-80
2021/05/01 06:36:50;;;;;;;;;;;;;;;21.89;30.82;97746.75;4943328;29;671;-80
2021/05/01 06:39:16;;;;;;;;;;;;;;;21.89;30.96;97746.75;4926495;29;906;-81
2021/05/01 06:41:45;;;;;;;;;;;;;;;21.85;31.15;97747.63;4942875;29;845;-80
2021/05/01 06:44:13;;;;;;;;;;;;;;;21.89;30.90;97749.56;4943038;29;900;-80
2021/05/01 06:46:39;;;;;;;;;;;;;;;21.94;31.23;97746.19;4926734;29;702;-77
2021/05/01 06:49:16;;;;;;;;;;;;;;;21.91;30.86;97744.25;4926763;29;663;-77
2021/05/01 06:51:41;;;;;;;;;;;;;;;21.91;30.85;97739.38;4942540;29;1935;-79
2021/05/01 06:54:07;;;;;;;;;;;;;;;21.91;30.91;97749.91;4926066;29;953;-79
2021/05/01 06:56:33;;;;;;;;;;;;;;;21.81;31.42;97746.97;4926445;29;893;-79
2021/05/01 06:58:59;;;;;;;;;;;;;;;21.88;31.03;97745.16;4926093;29;720;-78
2021/05/01 07:01:25;;;;;;;;;;;;;;;21.90;31.10;97759.66;4926361;29;663;-79
2021/05/01 07:03:50;;;;;;;;;;;;;;;20.09;30.70;97469.69;4925799;29;1132;-79
2021/05/01 07:06:18;;;;;;;;;;;;;;;21.92;30.88;97763.63;4942498;29;1002;-79
2021/05/01 07:08:44;;;;;;;;;;;;;;;21.95;31.09;97761.91;4942363;29;894;-79
2021/05/01 07:11:10;;;;;;;;;;;;;;;22.01;30.94;97765.75;4926259;29;949;-79
2021/05/01 07:13:36;;;;;;;;;;;;;;;21.89;31.00;97758.88;4926383;29;1973;-79
2021/05/01 07:16:04;;;;;;;;;;;;;;;21.96;30.86;97763.50;4909549;29;808;-79
2021/05/01 07:18:30;;;;;;;;;;;;;;;21.94;31.10;97766.00;4926563;29;664;-80
2021/05/01 07:20:56;;;;;;;;;;;;;;;22.12;31.51;97765.44;4909521;29;941;-77
2021/05/01 07:23:21;;;;;;;;;;;;;;;22.32;32.77;97778.13;4942353;29;936;-78
2021/05/01 07:25:47;;;;;;;;;;;;;;;22.43;33.48;97765.63;4942655;29;872;-78
2021/05/01 07:28:12;;;;;;;;;;;;;;;22.42;33.89;97766.91;4942400;29;679;-73
2021/05/01 07:30:40;;;;;;;;;;;;;;;22.55;34.28;97773.34;4942635;29;681;-77
2021/05/01 07:33:14;;;;;;;;;;;;;;;22.36;34.03;97775.97;4942363;29;1899;-77
2021/05/01 07:35:40;;;;;;;;;;;;;;;22.14;34.18;97780.75;4942252;29;917;-77
2021/05/01 07:38:12;;;;;;;;;;;;;;;22.16;33.83;97783.94;4909692;29;1126;-79
2021/05/01 07:40:37;;;;;;;;;;;;;;;22.01;33.54;97783.56;4942000;29;1169;-78
2021/05/01 07:43:03;;;;;;;;;;;;;;;22.00;33.59;97775.53;4943042;29;561;-77
2021/05/01 07:45:28;;;;;;;;;;;;;;;21.97;33.57;97771.56;4942622;29;596;-79
2021/05/01 07:47:55;;;;;;;;;;;;;;;22.10;32.84;97757.38;4925888;29;683;-78
2021/05/01 07:50:21;;;;;;;;;;;;;;;22.14;32.58;97763.75;4925810;29;1045;-78
2021/05/01 07:52:47;;;;;;;;;;;;;;;22.02;32.93;97773.00;4925389;29;1903;-79
2021/05/01 07:55:13;;;;;;;;;;;;;;;22.00;32.57;97775.53;4942322;29;1058;-77
2021/05/01 07:57:38;;;;;;;;;;;;;;;22.08;32.57;97771.22;4942155;29;620;-77
2021/05/01 08:00:04;;;;;;;;;;;;;;;22.05;32.46;97775.75;4942280;29;631;-79
2021/05/01 08:02:44;;;;;;;;;;;;;;;22.07;32.32;97772.44;4942197;29;665;-78
2021/05/01 08:05:10;;;;;;;;;;;;;;;22.04;32.19;97777.00;4925185;29;978;-77
2021/05/01 08:07:35;;;;;;;;;;;;;;;21.93;32.37;97772.91;4925371;29;863;-79
2021/05/01 08:10:01;;;;;;;;;;;;;;;21.89;32.28;97775.84;4942171;29;955;-79
2021/05/01 08:12:26;;;;;;;;;;;;;;;21.99;32.02;97768.28;4942121;29;1982;-79
2021/05/01 08:14:52;;;;;;;;;;;;;;;21.95;32.17;97767.59;4942136;29;659;-79
2021/05/01 08:17:17;;;;;;;;;;;;;;;21.94;31.90;97760.34;4945101;29;647;-78
2021/05/01 08:19:43;;;;;;;;;;;;;;;21.93;32.14;97776.53;4945174;29;1103;-79
2021/05/01 08:22:08;;;;;;;;;;;;;;;21.90;32.10;97770.97;4945092;29;929;-78
2021/05/01 08:24:34;;;;;;;;;;;;;;;21.98;31.76;97770.31;4928957;29;1033;-79
2021/05/01 08:26:59;;;;;;;;;;;;;;;21.77;32.03;97771.78;4912848;29;1165;-79
2021/05/01 08:29:25;;;;;;;;;;;;;;;21.79;31.22;97780.59;4945142;29;676;-79
2021/05/01 08:31:50;;;;;;;;;;;;;;;21.93;31.24;97787.09;4945038;29;1958;-79
2021/05/01 08:34:16;;;;;;;;;;;;;;;21.92;31.05;97808.16;4945040;29;964;-80
2021/05/01 08:36:42;;;;;;;;;;;;;;;21.85;30.57;97798.63;4928562;29;899;-79
2021/05/01 08:39:07;;;;;;;;;;;;;;;21.76;30.70;97809.84;4945324;29;1048;-79
2021/05/01 08:41:33;;;;;;;;;;;;;;;21.76;30.23;97812.69;4945112;29;699;-80
2021/05/01 08:44:16;;;;;;;;;;;;;;;21.69;30.23;97810.03;4944885;29;635;-79
2021/05/01 08:46:41;;;;;;;;;;;;;;;21.75;30.16;97808.22;4927852;29;898;-79
2021/05/01 08:49:08;;;;;;;;;;;;;;;21.70;30.01;97820.13;4928101;29;1127;-78
2021/05/01 08:51:34;;;;;;;;;;;;;;;21.65;29.64;97811.38;4944821;29;1910;-79
2021/05/01 08:54:00;;;;;;;;;;;;;;;21.76;29.42;97812.69;4928235;29;836;-79
2021/05/01 08:56:25;;;;;;;;;;;;;;;21.65;29.39;97806.50;4944948;29;656;-78
2021/05/01 08:58:54;;;;;;;;;;;;;;;21.64;29.56;97802.09;4944549;29;790;-79
2021/05/01 09:01:20;;;;;;;;;;;;;;;21.59;29.27;97797.00;4919882;29;1118;-79
2021/05/01 09:03:45;;;;;;;;;;;;;;;21.56;29.33;97792.25;4918779;29;1316;-80
2021/05/01 09:06:11;;;;;;;;;;;;;;;21.56;29.15;97792.25;4933119;29;1150;-80
2021/05/01 09:08:38;;;;;;;;;;;;;;;21.61;28.86;97783.19;4903070;29;1181;-80
2021/05/01 09:11:04;;;;;;;;;;;;;;;21.56;28.82;97786.59;4927686;29;1170;-80
2021/05/01 09:13:29;;;;;;;;;;;;;;;21.50;28.89;97782.69;4927306;29;1918;-79
2021/05/01 09:16:08;;;;;;;;;;;;;;;21.65;28.76;97789.53;4937895;29;1213;-79
2021/05/01 09:18:42;;;;;;;;;;;;;;;21.68;28.97;97787.84;4941934;29;1146;-79
2021/05/01 09:21:15;;;;;;;;;;;;;;;21.63;29.24;97775.03;4941675;29;1158;-79
2021/05/01 09:23:41;;;;;;;;;;;;;;;21.62;29.58;97778.34;4940850;29;1122;-79
2021/05/01 09:26:06;;;;;;;;;;;;;;;21.73;29.75;97773.91;4943120;29;1321;-79
2021/05/01 09:28:38;;;;;;;;;;;;;;;21.71;29.74;97778.44;4916863;29;1209;-80
2021/05/01 09:31:05;;;;;;;;;;;;;;;21.56;29.90;97773.22;4917827;29;1225;-79
2021/05/01 09:33:34;;;;;;;;;;;;;;;21.63;30.17;97780.69;4919984;29;1906;-80
2021/05/01 09:36:04;;;;;;;;;;;;;;;21.67;29.64;97784.22;4942254;29;1293;-79
2021/05/01 09:38:33;;;;;;;;;;;;;;;21.67;29.90;97778.56;4943884;29;640;-79
2021/05/01 09:40:58;;;;;;;;;;;;;;;21.50;29.87;97777.03;4927679;29;691;-79
2021/05/01 09:43:24;;;;;;;;;;;;;;;21.65;29.84;97775.38;4943689;29;1053;-79
2021/05/01 09:45:50;;;;;;;;;;;;;;;21.65;29.87;97766.88;4927158;29;1043;-79
2021/05/01 09:48:18;;;;;;;;;;;;;;;21.60;29.93;97764.59;4943661;29;933;-79
2021/05/01 09:50:44;;;;;;;;;;;;;;;21.69;29.69;97756.25;4927285;29;996;-79
2021/05/01 09:53:14;;;;;;;;;;;;;;;21.78;29.58;97764.88;4926982;29;1981;-78
2021/05/01 09:55:46;;;;;;;;;;;;;;;21.58;29.74;97764.28;4940866;29;647;-78
2021/05/01 09:58:15;;;;;;;;;;;;;;;21.44;30.15;97754.16;4926967;29;580;-79
2021/05/01 10:00:40;;;;;;;;;;;;;;;21.41;29.97;97751.47;4943364;29;970;-79
2021/05/01 10:03:18;;;;;;;;;;;;;;;21.49;29.90;97756.44;4943558;29;877;-79
2021/05/01 10:05:44;;;;;;;;;;;;;;;21.46;29.99;97759.38;4943699;29;1036;-78
2021/05/01 10:08:10;;;;;;;;;;;;;;;21.41;29.76;97763.56;4926760;29;641;-79
2021/05/01 10:10:39;;;;;;;;;;;;;;;21.43;29.97;97760.28;4927093;29;695;-78
2021/05/01 10:13:05;;;;;;;;;;;;;;;21.48;29.71;97752.03;4927381;29;1958;-79
2021/05/01 10:15:30;;;;;;;;;;;;;;;21.46;29.74;97748.84;4943178;29;872;-79
2021/05/01 10:18:06;;;;;;;;;;;;;;;21.44;29.73;97762.66;4943114;29;907;-79
2021/05/01 10:20:33;;;;;;;;;;;;;;;21.46;29.91;97760.19;4926422;29;924;-77
2021/05/01 10:23:14;;;;;;;;;;;;;;;21.44;30.04;97757.00;4926639;29;1310;-77
2021/05/01 10:25:40;;;;;;;;;;;;;;;21.53;29.51;97756.34;4926558;29;691;-77
2021/05/01 10:28:11;;;;;;;;;;;;;;;21.53;29.63;97756.34;4926729;29;676;-79
2021/05/01 10:30:42;;;;;;;;;;;;;;;21.46;29.80;97754.53;4926695;29;889;-78
2021/05/01 10:33:20;;;;;;;;;;;;;;;21.55;29.61;97751.00;4942337;29;1899;-79
2021/05/01 10:35:49;;;;;;;;;;;;;;;21.51;29.84;97750.34;4942916;29;682;-79
2021/05/01 10:38:16;;;;;;;;;;;;;;;21.50;29.70;97748.72;4942400;29;628;-79
2021/05/01 10:40:45;;;;;;;;;;;;;;;21.43;30.05;97749.75;4926403;29;1241;-79
2021/05/01 10:43:12;;;;;;;;;;;;;;;21.57;29.74;97742.88;4942780;29;627;-77
2021/05/01 10:45:37;;;;;;;;;;;;;;;21.55;29.76;97745.34;4926419;29;870;-76
2021/05/01 10:48:12;;;;;;;;;;;;;;;21.59;29.97;97741.16;4942584;29;880;-77
2021/05/01 10:50:37;;;;;;;;;;;;;;;21.65;30.15;97732.91;4942718;29;680;-77
2021/05/01 10:53:04;;;;;;;;;;;;;;;21.54;30.22;97738.09;4942955;29;1911;-78
2021/05/01 10:55:42;;;;;;;;;;;;;;;21.59;30.07;97746.03;4942760;29;632;-79
2021/05/01 10:58:08;;;;;;;;;;;;;;;21.59;30.16;97740.38;4942459;29;631;-77
2021/05/01 11:00:40;;;;;;;;;;;;;;;21.60;30.12;97736.28;4925976;29;924;-79
2021/05/01 11:03:06;;;;;;;;;;;;;;;21.55;29.92;97734.03;4926028;29;1008;-79
2021/05/01 11:05:32;;;;;;;;;;;;;;;21.38;30.35;97724.03;4926433;29;1055;-79
2021/05/01 11:08:27;;;;;;;;;;;;;;;21.54;29.95;97730.41;4926174;29;612;-78
2021/05/01 11:10:53;;;;;;;;;;;;;;;21.42;30.10;97731.19;4926084;29;1158;-79
2021/05/01 11:13:25;;;;;;;;;;;;;;;21.43;30.35;97727.09;4926124;29;1914;-79
2021/05/01 11:15:51;;;;;;;;;;;;;;;21.44;30.25;97727.91;4925995;29;896;-80
2021/05/01 11:18:20;;;;;;;;;;;;;;;21.57;30.02;97714.56;4926273;29;870;-79
2021/05/01 11:20:45;;;;;;;;;;;;;;;21.60;29.89;97724.97;4942415;29;660;-79
2021/05/01 11:23:12;;;;;;;;;;;;;;;21.61;29.94;97718.09;4942494;29;656;-78
2021/05/01 11:25:37;;;;;;;;;;;;;;;21.58;30.07;97722.59;4925957;29;1260;-79
2021/05/01 11:28:03;;;;;;;;;;;;;;;21.55;30.03;97722.69;4926092;29;720;-80
2021/05/01 11:30:28;;;;;;;;;;;;;;;21.54;30.08;97721.13;4910200;29;1157;-77
2021/05/01 11:32:54;;;;;;;;;;;;;;;21.42;30.14;97725.53;4910115;29;1986;-78
2021/05/01 11:35:23;;;;;;;;;;;;;;;21.47;29.94;97727.00;4942311;29;789;-77
2021/05/01 11:37:53;;;;;;;;;;;;;;;21.42;30.23;97719.06;4942453;29;670;-78
2021/05/01 11:40:19;;;;;;;;;;;;;;;21.37;30.22;97722.47;4926195;29;675;-78
2021/05/01 11:42:45;;;;;;;;;;;;;;;21.43;30.01;97721.44;4910530;29;1261;-79
2021/05/01 11:45:14;;;;;;;;;;;;;;;21.40;29.86;97713.06;4925544;29;834;-80
2021/05/01 11:47:40;;;;;;;;;;;;;;;21.41;30.09;97711.84;4925598;29;888;-78
2021/05/01 11:50:06;;;;;;;;;;;;;;;21.38;29.80;97724.03;4927624;29;1004;-80
2021/05/01 11:52:50;;;;;;;;;;;;;;;21.36;30.22;97716.00;4929463;29;1903;-77
2021/05/01 11:55:21;;;;;;;;;;;;;;;21.46;29.99;97714.09;4945935;29;655;-77
2021/05/01 11:57:53;;;;;;;;;;;;;;;21.49;29.89;97699.81;4929056;29;628;-78
2021/05/01 12:00:28;;;;;;;;;;;;;;;21.49;29.99;97707.53;4945551;29;993;-78
2021/05/01 12:02:53;;;;;;;;;;;;;;;21.37;30.02;97697.00;4945573;29;843;-78
2021/05/01 12:05:23;;;;;;;;;;;;;;;21.47;29.71;97687.38;4929171;29;1072;-76
2021/05/01 12:07:55;;;;;;;;;;;;;;;21.39;30.15;97691.66;4945829;29;663;-77
2021/05/01 12:10:21;;;;;;;;;;;;;;;21.43;29.81;97687.47;4945411;29;672;-78
2021/05/01 12:12:48;;;;;;;;;;;;;;;21.47;29.65;97687.38;4945344;29;1967;-79
2021/05/01 12:15:14;;;;;;;;;;;;;;;21.40;29.69;97681.91;4945492;29;781;-78
2021/05/01 12:17:41;;;;;;;;;;;;;;;21.39;29.90;97674.69;4945849;29;1106;-78
2021/05/01 12:20:10;;;;;;;;;;;;;;;21.35;29.76;97668.31;4929139;29;1305;-79
2021/05/01 12:22:36;;;;;;;;;;;;;;;21.31;30.05;97672.06;4945305;29;699;-79
2021/05/01 12:25:01;;;;;;;;;;;;;;;21.42;29.82;97665.28;4945567;29;660;-78
2021/05/01 12:27:45;;;;;;;;;;;;;;;21.47;29.81;97659.06;4928929;29;818;-79
2021/05/01 12:30:31;;;;;;;;;;;;;;;21.41;29.87;97658.06;4945152;29;925;-79
2021/05/01 12:32:56;;;;;;;;;;;;;;;21.37;30.03;97648.88;4945162;29;1959;-78
2021/05/01 12:35:22;;;;;;;;;;;;;;;21.49;29.89;97651.69;4945419;29;659;-77
2021/05/01 12:37:47;;;;;;;;;;;;;;;21.44;29.86;97648.66;4928868;29;687;-78
2021/05/01 12:40:13;;;;;;;;;;;;;;;21.40;29.71;97643.13;4928595;29;590;-78
2021/05/01 12:42:38;;;;;;;;;;;;;;;21.48;29.81;97644.47;4928753;29;636;-78
2021/05/01 12:45:24;;;;;;;;;;;;;;;21.46;29.72;97643.34;4945178;29;640;-79
2021/05/01 12:47:49;;;;;;;;;;;;;;;21.33;29.96;97654.63;4931234;29;981;-78
2021/05/01 12:50:17;;;;;;;;;;;;;;;21.38;29.91;97645.59;4944686;29;939;-77
2021/05/01 12:52:43;;;;;;;;;;;;;;;21.49;29.72;97653.75;4944814;29;1903;-77
2021/05/01 12:55:09;;;;;;;;;;;;;;;21.46;29.58;97649.78;4945047;29;655;-79
2021/05/01 12:57:34;;;;;;;;;;;;;;;21.44;29.42;97642.97;4944924;29;663;-79
2021/05/01 13:00:19;;;;;;;;;;;;;;;21.46;29.72;97646.97;4928833;29;724;-84
2021/05/01 13:02:57;;;;;;;;;;;;;;;21.37;29.68;97646.84;4944230;29;935;-79
2021/05/01 13:05:25;;;;;;;;;;;;;;;21.38;29.51;97636.31;4928046;29;1319;-78
2021/05/01 13:07:51;;;;;;;;;;;;;;;21.43;29.53;97636.53;4944841;29;631;-76
2021/05/01 13:10:20;;;;;;;;;;;;;;;21.35;29.56;97640.03;4944724;29;615;-79